<?xml version="1.0" encoding="UTF-8" standalone="no" ?>
<gpx xmlns="http://www.topografix.com/GPX/1/1" xmlns:xsi="http://www.w3.org/2001/XMLSchema-instance" xsi:schemaLocation="http://www.topografix.com/GPX/1/1 http://www.topografix.com/GPX/1/1/gpx.xsd" version="1.1" creator="VisuGPX - https://www.visugpx.com">
  <metadata>
    <name>reco entrainement tignes 2011</name>
    <desc><![CDATA[Parcours sur Tignes. ]]></desc>
  </metadata>
  <wpt lat="38.85555" lon="-94.79902">
    <ele>3.01</ele>
    <name><![CDATA[GARMIN]]></name>
  </wpt>
  <wpt lat="50.98288" lon="-1.4639">
    <ele>3.01</ele>
    <name><![CDATA[GRMEUR]]></name>
  </wpt>
  <wpt lat="25.06178" lon="121.64027">
    <ele>3.01</ele>
    <name><![CDATA[GRMTWN]]></name>
  </wpt>
  <trk>
    <name><![CDATA[ACTIVE LOG: 26 JUN 2011 11:34]]></name>
    <trkseg>
      <trkpt lat="45.48296" lon="6.90502">
        <ele>2388.05</ele>
        <time>2011-06-26T09:34:59Z</time>
      </trkpt>
      <trkpt lat="45.48296" lon="6.90502">
        <ele>2388.05</ele>
        <time>2011-06-26T09:35:00Z</time>
      </trkpt>
      <trkpt lat="45.483" lon="6.90501">
        <ele>2388.05</ele>
        <time>2011-06-26T09:35:04Z</time>
      </trkpt>
      <trkpt lat="45.48307" lon="6.90498">
        <ele>2390.46</ele>
        <time>2011-06-26T09:35:15Z</time>
      </trkpt>
      <trkpt lat="45.48313" lon="6.90492">
        <ele>2394.3</ele>
        <time>2011-06-26T09:35:25Z</time>
      </trkpt>
      <trkpt lat="45.4832" lon="6.90486">
        <ele>2396.7</ele>
        <time>2011-06-26T09:35:36Z</time>
      </trkpt>
      <trkpt lat="45.4833" lon="6.90483">
        <ele>2399.59</ele>
        <time>2011-06-26T09:35:49Z</time>
      </trkpt>
      <trkpt lat="45.48333" lon="6.90482">
        <ele>2401.03</ele>
        <time>2011-06-26T09:35:53Z</time>
      </trkpt>
      <trkpt lat="45.48342" lon="6.90477">
        <ele>2403.91</ele>
        <time>2011-06-26T09:36:05Z</time>
      </trkpt>
      <trkpt lat="45.48342" lon="6.90472">
        <ele>2405.36</ele>
        <time>2011-06-26T09:36:09Z</time>
      </trkpt>
      <trkpt lat="45.48343" lon="6.9046">
        <ele>2407.76</ele>
        <time>2011-06-26T09:36:20Z</time>
      </trkpt>
      <trkpt lat="45.48352" lon="6.90457">
        <ele>2411.12</ele>
        <time>2011-06-26T09:36:30Z</time>
      </trkpt>
      <trkpt lat="45.48356" lon="6.90451">
        <ele>2413.05</ele>
        <time>2011-06-26T09:36:39Z</time>
      </trkpt>
      <trkpt lat="45.48354" lon="6.90446">
        <ele>2413.53</ele>
        <time>2011-06-26T09:36:43Z</time>
      </trkpt>
      <trkpt lat="45.48354" lon="6.90444">
        <ele>2412.57</ele>
        <time>2011-06-26T09:36:45Z</time>
      </trkpt>
      <trkpt lat="45.48354" lon="6.90436">
        <ele>2414.97</ele>
        <time>2011-06-26T09:36:51Z</time>
      </trkpt>
      <trkpt lat="45.48356" lon="6.90432">
        <ele>2416.41</ele>
        <time>2011-06-26T09:36:55Z</time>
      </trkpt>
      <trkpt lat="45.4836" lon="6.90432">
        <ele>2415.45</ele>
        <time>2011-06-26T09:36:59Z</time>
      </trkpt>
      <trkpt lat="45.4837" lon="6.9042">
        <ele>2419.3</ele>
        <time>2011-06-26T09:37:10Z</time>
      </trkpt>
      <trkpt lat="45.48383" lon="6.90403">
        <ele>2422.18</ele>
        <time>2011-06-26T09:37:26Z</time>
      </trkpt>
      <trkpt lat="45.48391" lon="6.90393">
        <ele>2425.06</ele>
        <time>2011-06-26T09:37:36Z</time>
      </trkpt>
      <trkpt lat="45.48405" lon="6.90374">
        <ele>2426.5</ele>
        <time>2011-06-26T09:37:50Z</time>
      </trkpt>
      <trkpt lat="45.48423" lon="6.90355">
        <ele>2428.43</ele>
        <time>2011-06-26T09:38:07Z</time>
      </trkpt>
      <trkpt lat="45.48424" lon="6.90354">
        <ele>2429.87</ele>
        <time>2011-06-26T09:38:08Z</time>
      </trkpt>
      <trkpt lat="45.48432" lon="6.90343">
        <ele>2432.27</ele>
        <time>2011-06-26T09:38:19Z</time>
      </trkpt>
      <trkpt lat="45.48435" lon="6.90338">
        <ele>2433.23</ele>
        <time>2011-06-26T09:38:24Z</time>
      </trkpt>
      <trkpt lat="45.48442" lon="6.90324">
        <ele>2439</ele>
        <time>2011-06-26T09:38:39Z</time>
      </trkpt>
      <trkpt lat="45.48447" lon="6.903">
        <ele>2441.89</ele>
        <time>2011-06-26T09:38:56Z</time>
      </trkpt>
      <trkpt lat="45.48447" lon="6.90296">
        <ele>2441.89</ele>
        <time>2011-06-26T09:38:59Z</time>
      </trkpt>
      <trkpt lat="45.48435" lon="6.90304">
        <ele>2444.77</ele>
        <time>2011-06-26T09:39:09Z</time>
      </trkpt>
      <trkpt lat="45.48427" lon="6.90308">
        <ele>2445.73</ele>
        <time>2011-06-26T09:39:20Z</time>
      </trkpt>
      <trkpt lat="45.48425" lon="6.90308">
        <ele>2446.69</ele>
        <time>2011-06-26T09:39:22Z</time>
      </trkpt>
      <trkpt lat="45.48423" lon="6.90308">
        <ele>2449.1</ele>
        <time>2011-06-26T09:39:24Z</time>
      </trkpt>
      <trkpt lat="45.48419" lon="6.90307">
        <ele>2448.62</ele>
        <time>2011-06-26T09:39:28Z</time>
      </trkpt>
      <trkpt lat="45.48417" lon="6.90305">
        <ele>2450.06</ele>
        <time>2011-06-26T09:39:31Z</time>
      </trkpt>
      <trkpt lat="45.48411" lon="6.90294">
        <ele>2452.46</ele>
        <time>2011-06-26T09:39:42Z</time>
      </trkpt>
      <trkpt lat="45.48406" lon="6.90278">
        <ele>2455.82</ele>
        <time>2011-06-26T09:39:57Z</time>
      </trkpt>
      <trkpt lat="45.48404" lon="6.90274">
        <ele>2456.31</ele>
        <time>2011-06-26T09:40:01Z</time>
      </trkpt>
      <trkpt lat="45.48402" lon="6.90253">
        <ele>2459.67</ele>
        <time>2011-06-26T09:40:14Z</time>
      </trkpt>
      <trkpt lat="45.48402" lon="6.90232">
        <ele>2462.55</ele>
        <time>2011-06-26T09:40:29Z</time>
      </trkpt>
      <trkpt lat="45.48398" lon="6.90238">
        <ele>2465.92</ele>
        <time>2011-06-26T09:40:38Z</time>
      </trkpt>
      <trkpt lat="45.48395" lon="6.90228">
        <ele>2467.36</ele>
        <time>2011-06-26T09:40:49Z</time>
      </trkpt>
      <trkpt lat="45.48393" lon="6.90221">
        <ele>2470.73</ele>
        <time>2011-06-26T09:41:00Z</time>
      </trkpt>
      <trkpt lat="45.48392" lon="6.90214">
        <ele>2473.13</ele>
        <time>2011-06-26T09:41:14Z</time>
      </trkpt>
      <trkpt lat="45.48393" lon="6.90204">
        <ele>2476.49</ele>
        <time>2011-06-26T09:41:26Z</time>
      </trkpt>
      <trkpt lat="45.48395" lon="6.90191">
        <ele>2479.86</ele>
        <time>2011-06-26T09:41:41Z</time>
      </trkpt>
      <trkpt lat="45.484" lon="6.90182">
        <ele>2481.3</ele>
        <time>2011-06-26T09:41:52Z</time>
      </trkpt>
      <trkpt lat="45.48402" lon="6.9018">
        <ele>2483.22</ele>
        <time>2011-06-26T09:41:55Z</time>
      </trkpt>
      <trkpt lat="45.48408" lon="6.90169">
        <ele>2486.11</ele>
        <time>2011-06-26T09:42:10Z</time>
      </trkpt>
      <trkpt lat="45.48411" lon="6.90164">
        <ele>2488.99</ele>
        <time>2011-06-26T09:42:21Z</time>
      </trkpt>
      <trkpt lat="45.48416" lon="6.90162">
        <ele>2491.39</ele>
        <time>2011-06-26T09:42:32Z</time>
      </trkpt>
      <trkpt lat="45.48419" lon="6.90155">
        <ele>2493.8</ele>
        <time>2011-06-26T09:42:42Z</time>
      </trkpt>
      <trkpt lat="45.48419" lon="6.90154">
        <ele>2494.76</ele>
        <time>2011-06-26T09:42:44Z</time>
      </trkpt>
      <trkpt lat="45.4842" lon="6.90144">
        <ele>2498.12</ele>
        <time>2011-06-26T09:42:59Z</time>
      </trkpt>
      <trkpt lat="45.48425" lon="6.90142">
        <ele>2501.49</ele>
        <time>2011-06-26T09:43:10Z</time>
      </trkpt>
      <trkpt lat="45.48432" lon="6.90134">
        <ele>2503.41</ele>
        <time>2011-06-26T09:43:22Z</time>
      </trkpt>
      <trkpt lat="45.48433" lon="6.90134">
        <ele>2504.37</ele>
        <time>2011-06-26T09:43:35Z</time>
      </trkpt>
      <trkpt lat="45.48437" lon="6.90128">
        <ele>2507.74</ele>
        <time>2011-06-26T09:43:45Z</time>
      </trkpt>
      <trkpt lat="45.48439" lon="6.90124">
        <ele>2508.22</ele>
        <time>2011-06-26T09:43:51Z</time>
      </trkpt>
      <trkpt lat="45.48444" lon="6.90118">
        <ele>2511.58</ele>
        <time>2011-06-26T09:44:02Z</time>
      </trkpt>
      <trkpt lat="45.48448" lon="6.90111">
        <ele>2513.5</ele>
        <time>2011-06-26T09:44:11Z</time>
      </trkpt>
      <trkpt lat="45.48457" lon="6.90105">
        <ele>2516.39</ele>
        <time>2011-06-26T09:44:23Z</time>
      </trkpt>
      <trkpt lat="45.48458" lon="6.90105">
        <ele>2516.87</ele>
        <time>2011-06-26T09:44:24Z</time>
      </trkpt>
      <trkpt lat="45.48462" lon="6.90105">
        <ele>2518.31</ele>
        <time>2011-06-26T09:44:28Z</time>
      </trkpt>
      <trkpt lat="45.48464" lon="6.90104">
        <ele>2518.79</ele>
        <time>2011-06-26T09:44:30Z</time>
      </trkpt>
      <trkpt lat="45.48467" lon="6.90103">
        <ele>2520.23</ele>
        <time>2011-06-26T09:44:34Z</time>
      </trkpt>
      <trkpt lat="45.4847" lon="6.90102">
        <ele>2519.75</ele>
        <time>2011-06-26T09:44:37Z</time>
      </trkpt>
      <trkpt lat="45.48474" lon="6.90097">
        <ele>2522.16</ele>
        <time>2011-06-26T09:44:42Z</time>
      </trkpt>
      <trkpt lat="45.48477" lon="6.90093">
        <ele>2523.12</ele>
        <time>2011-06-26T09:44:46Z</time>
      </trkpt>
      <trkpt lat="45.48478" lon="6.90084">
        <ele>2526.48</ele>
        <time>2011-06-26T09:44:58Z</time>
      </trkpt>
      <trkpt lat="45.48481" lon="6.90078">
        <ele>2530.81</ele>
        <time>2011-06-26T09:45:12Z</time>
      </trkpt>
      <trkpt lat="45.48478" lon="6.90073">
        <ele>2533.69</ele>
        <time>2011-06-26T09:45:25Z</time>
      </trkpt>
      <trkpt lat="45.48477" lon="6.90069">
        <ele>2535.13</ele>
        <time>2011-06-26T09:45:41Z</time>
      </trkpt>
      <trkpt lat="45.48472" lon="6.90074">
        <ele>2538.02</ele>
        <time>2011-06-26T09:45:47Z</time>
      </trkpt>
      <trkpt lat="45.48468" lon="6.90075">
        <ele>2539.46</ele>
        <time>2011-06-26T09:45:52Z</time>
      </trkpt>
      <trkpt lat="45.48461" lon="6.90075">
        <ele>2541.38</ele>
        <time>2011-06-26T09:46:01Z</time>
      </trkpt>
      <trkpt lat="45.48455" lon="6.90071">
        <ele>2544.75</ele>
        <time>2011-06-26T09:46:13Z</time>
      </trkpt>
      <trkpt lat="45.48453" lon="6.90069">
        <ele>2547.15</ele>
        <time>2011-06-26T09:46:18Z</time>
      </trkpt>
      <trkpt lat="45.48446" lon="6.90064">
        <ele>2549.07</ele>
        <time>2011-06-26T09:46:32Z</time>
      </trkpt>
      <trkpt lat="45.48442" lon="6.90062">
        <ele>2552.92</ele>
        <time>2011-06-26T09:46:53Z</time>
      </trkpt>
      <trkpt lat="45.48436" lon="6.90057">
        <ele>2555.8</ele>
        <time>2011-06-26T09:47:06Z</time>
      </trkpt>
      <trkpt lat="45.48434" lon="6.90051">
        <ele>2556.76</ele>
        <time>2011-06-26T09:47:17Z</time>
      </trkpt>
      <trkpt lat="45.48428" lon="6.90048">
        <ele>2560.13</ele>
        <time>2011-06-26T09:47:28Z</time>
      </trkpt>
      <trkpt lat="45.48427" lon="6.90047">
        <ele>2560.61</ele>
        <time>2011-06-26T09:47:30Z</time>
      </trkpt>
      <trkpt lat="45.48418" lon="6.90041">
        <ele>2562.53</ele>
        <time>2011-06-26T09:47:43Z</time>
      </trkpt>
      <trkpt lat="45.48416" lon="6.9004">
        <ele>2563.97</ele>
        <time>2011-06-26T09:47:46Z</time>
      </trkpt>
      <trkpt lat="45.4841" lon="6.90037">
        <ele>2565.42</ele>
        <time>2011-06-26T09:47:53Z</time>
      </trkpt>
      <trkpt lat="45.48404" lon="6.90026">
        <ele>2567.34</ele>
        <time>2011-06-26T09:48:04Z</time>
      </trkpt>
      <trkpt lat="45.48401" lon="6.9002">
        <ele>2570.22</ele>
        <time>2011-06-26T09:48:11Z</time>
      </trkpt>
      <trkpt lat="45.48397" lon="6.90017">
        <ele>2570.7</ele>
        <time>2011-06-26T09:48:16Z</time>
      </trkpt>
      <trkpt lat="45.48394" lon="6.90014">
        <ele>2571.18</ele>
        <time>2011-06-26T09:48:20Z</time>
      </trkpt>
      <trkpt lat="45.48392" lon="6.9001">
        <ele>2571.66</ele>
        <time>2011-06-26T09:48:24Z</time>
      </trkpt>
      <trkpt lat="45.48391" lon="6.90001">
        <ele>2574.55</ele>
        <time>2011-06-26T09:48:35Z</time>
      </trkpt>
      <trkpt lat="45.48386" lon="6.89996">
        <ele>2578.87</ele>
        <time>2011-06-26T09:48:44Z</time>
      </trkpt>
      <trkpt lat="45.48383" lon="6.89978">
        <ele>2580.32</ele>
        <time>2011-06-26T09:48:56Z</time>
      </trkpt>
      <trkpt lat="45.48381" lon="6.89961">
        <ele>2583.68</ele>
        <time>2011-06-26T09:49:08Z</time>
      </trkpt>
      <trkpt lat="45.48382" lon="6.89959">
        <ele>2583.2</ele>
        <time>2011-06-26T09:49:21Z</time>
      </trkpt>
      <trkpt lat="45.48382" lon="6.89959">
        <ele>2583.2</ele>
        <time>2011-06-26T09:49:40Z</time>
      </trkpt>
      <trkpt lat="45.48384" lon="6.8996">
        <ele>2583.2</ele>
        <time>2011-06-26T09:49:55Z</time>
      </trkpt>
      <trkpt lat="45.48383" lon="6.89957">
        <ele>2585.6</ele>
        <time>2011-06-26T09:50:23Z</time>
      </trkpt>
      <trkpt lat="45.4838" lon="6.89953">
        <ele>2587.04</ele>
        <time>2011-06-26T09:50:27Z</time>
      </trkpt>
      <trkpt lat="45.48379" lon="6.89952">
        <ele>2588.01</ele>
        <time>2011-06-26T09:50:30Z</time>
      </trkpt>
      <trkpt lat="45.48375" lon="6.89952">
        <ele>2588.49</ele>
        <time>2011-06-26T09:50:36Z</time>
      </trkpt>
      <trkpt lat="45.48373" lon="6.8995">
        <ele>2590.41</ele>
        <time>2011-06-26T09:50:40Z</time>
      </trkpt>
      <trkpt lat="45.48366" lon="6.89945">
        <ele>2592.81</ele>
        <time>2011-06-26T09:50:52Z</time>
      </trkpt>
      <trkpt lat="45.48364" lon="6.8994">
        <ele>2593.29</ele>
        <time>2011-06-26T09:50:57Z</time>
      </trkpt>
      <trkpt lat="45.48362" lon="6.89936">
        <ele>2596.66</ele>
        <time>2011-06-26T09:51:00Z</time>
      </trkpt>
      <trkpt lat="45.48361" lon="6.89934">
        <ele>2594.74</ele>
        <time>2011-06-26T09:51:02Z</time>
      </trkpt>
      <trkpt lat="45.48358" lon="6.89921">
        <ele>2598.1</ele>
        <time>2011-06-26T09:51:14Z</time>
      </trkpt>
      <trkpt lat="45.48356" lon="6.89912">
        <ele>2600.98</ele>
        <time>2011-06-26T09:51:24Z</time>
      </trkpt>
      <trkpt lat="45.48351" lon="6.89905">
        <ele>2603.39</ele>
        <time>2011-06-26T09:51:36Z</time>
      </trkpt>
      <trkpt lat="45.48345" lon="6.89892">
        <ele>2606.27</ele>
        <time>2011-06-26T09:51:50Z</time>
      </trkpt>
      <trkpt lat="45.48343" lon="6.89864">
        <ele>2608.19</ele>
        <time>2011-06-26T09:52:04Z</time>
      </trkpt>
      <trkpt lat="45.48337" lon="6.89845">
        <ele>2609.16</ele>
        <time>2011-06-26T09:52:15Z</time>
      </trkpt>
      <trkpt lat="45.48334" lon="6.89838">
        <ele>2609.64</ele>
        <time>2011-06-26T09:52:19Z</time>
      </trkpt>
      <trkpt lat="45.48326" lon="6.89817">
        <ele>2611.56</ele>
        <time>2011-06-26T09:52:30Z</time>
      </trkpt>
      <trkpt lat="45.48319" lon="6.89791">
        <ele>2615.4</ele>
        <time>2011-06-26T09:52:44Z</time>
      </trkpt>
      <trkpt lat="45.48319" lon="6.89789">
        <ele>2614.44</ele>
        <time>2011-06-26T09:52:45Z</time>
      </trkpt>
      <trkpt lat="45.48312" lon="6.89768">
        <ele>2617.33</ele>
        <time>2011-06-26T09:52:57Z</time>
      </trkpt>
      <trkpt lat="45.48309" lon="6.89762">
        <ele>2618.29</ele>
        <time>2011-06-26T09:53:02Z</time>
      </trkpt>
      <trkpt lat="45.48308" lon="6.89736">
        <ele>2622.13</ele>
        <time>2011-06-26T09:53:18Z</time>
      </trkpt>
      <trkpt lat="45.48309" lon="6.89735">
        <ele>2621.65</ele>
        <time>2011-06-26T09:53:19Z</time>
      </trkpt>
      <trkpt lat="45.48312" lon="6.89706">
        <ele>2622.61</ele>
        <time>2011-06-26T09:53:36Z</time>
      </trkpt>
      <trkpt lat="45.48314" lon="6.89697">
        <ele>2624.06</ele>
        <time>2011-06-26T09:53:42Z</time>
      </trkpt>
      <trkpt lat="45.48318" lon="6.89689">
        <ele>2627.42</ele>
        <time>2011-06-26T09:53:52Z</time>
      </trkpt>
      <trkpt lat="45.48318" lon="6.89675">
        <ele>2629.34</ele>
        <time>2011-06-26T09:54:05Z</time>
      </trkpt>
      <trkpt lat="45.48315" lon="6.89651">
        <ele>2632.71</ele>
        <time>2011-06-26T09:54:20Z</time>
      </trkpt>
      <trkpt lat="45.48314" lon="6.89636">
        <ele>2636.07</ele>
        <time>2011-06-26T09:54:33Z</time>
      </trkpt>
      <trkpt lat="45.48314" lon="6.89635">
        <ele>2636.07</ele>
        <time>2011-06-26T09:54:34Z</time>
      </trkpt>
      <trkpt lat="45.48316" lon="6.89621">
        <ele>2639.44</ele>
        <time>2011-06-26T09:54:49Z</time>
      </trkpt>
      <trkpt lat="45.48317" lon="6.89621">
        <ele>2639.92</ele>
        <time>2011-06-26T09:54:50Z</time>
      </trkpt>
      <trkpt lat="45.48315" lon="6.89618">
        <ele>2642.8</ele>
        <time>2011-06-26T09:55:04Z</time>
      </trkpt>
      <trkpt lat="45.48316" lon="6.89612">
        <ele>2645.21</ele>
        <time>2011-06-26T09:55:16Z</time>
      </trkpt>
      <trkpt lat="45.48317" lon="6.89606">
        <ele>2648.09</ele>
        <time>2011-06-26T09:55:27Z</time>
      </trkpt>
      <trkpt lat="45.48316" lon="6.89598">
        <ele>2649.53</ele>
        <time>2011-06-26T09:55:38Z</time>
      </trkpt>
      <trkpt lat="45.48314" lon="6.8959">
        <ele>2652.9</ele>
        <time>2011-06-26T09:55:48Z</time>
      </trkpt>
      <trkpt lat="45.48313" lon="6.89585">
        <ele>2654.82</ele>
        <time>2011-06-26T09:55:58Z</time>
      </trkpt>
      <trkpt lat="45.48313" lon="6.89574">
        <ele>2657.22</ele>
        <time>2011-06-26T09:56:11Z</time>
      </trkpt>
      <trkpt lat="45.48314" lon="6.89564">
        <ele>2660.59</ele>
        <time>2011-06-26T09:56:20Z</time>
      </trkpt>
      <trkpt lat="45.48314" lon="6.89559">
        <ele>2661.07</ele>
        <time>2011-06-26T09:56:25Z</time>
      </trkpt>
      <trkpt lat="45.48314" lon="6.89558">
        <ele>2661.55</ele>
        <time>2011-06-26T09:56:26Z</time>
      </trkpt>
      <trkpt lat="45.48315" lon="6.89555">
        <ele>2662.03</ele>
        <time>2011-06-26T09:56:29Z</time>
      </trkpt>
      <trkpt lat="45.48318" lon="6.89548">
        <ele>2665.87</ele>
        <time>2011-06-26T09:56:41Z</time>
      </trkpt>
      <trkpt lat="45.48324" lon="6.89532">
        <ele>2668.76</ele>
        <time>2011-06-26T09:56:57Z</time>
      </trkpt>
      <trkpt lat="45.48327" lon="6.8952">
        <ele>2672.12</ele>
        <time>2011-06-26T09:57:08Z</time>
      </trkpt>
      <trkpt lat="45.48326" lon="6.89514">
        <ele>2675.49</ele>
        <time>2011-06-26T09:57:15Z</time>
      </trkpt>
      <trkpt lat="45.48324" lon="6.89511">
        <ele>2675.01</ele>
        <time>2011-06-26T09:57:19Z</time>
      </trkpt>
      <trkpt lat="45.48324" lon="6.89513">
        <ele>2675.49</ele>
        <time>2011-06-26T09:57:31Z</time>
      </trkpt>
      <trkpt lat="45.48325" lon="6.89513">
        <ele>2675.97</ele>
        <time>2011-06-26T09:57:43Z</time>
      </trkpt>
      <trkpt lat="45.48324" lon="6.89515">
        <ele>2675.49</ele>
        <time>2011-06-26T09:58:01Z</time>
      </trkpt>
      <trkpt lat="45.48322" lon="6.89517">
        <ele>2676.93</ele>
        <time>2011-06-26T09:58:08Z</time>
      </trkpt>
      <trkpt lat="45.48323" lon="6.89515">
        <ele>2675.97</ele>
        <time>2011-06-26T09:58:10Z</time>
      </trkpt>
      <trkpt lat="45.4832" lon="6.89496">
        <ele>2679.81</ele>
        <time>2011-06-26T09:58:23Z</time>
      </trkpt>
      <trkpt lat="45.48319" lon="6.89495">
        <ele>2678.85</ele>
        <time>2011-06-26T09:58:24Z</time>
      </trkpt>
      <trkpt lat="45.48317" lon="6.89494">
        <ele>2681.25</ele>
        <time>2011-06-26T09:58:27Z</time>
      </trkpt>
      <trkpt lat="45.48316" lon="6.89491">
        <ele>2684.14</ele>
        <time>2011-06-26T09:58:31Z</time>
      </trkpt>
      <trkpt lat="45.4832" lon="6.89477">
        <ele>2685.1</ele>
        <time>2011-06-26T09:58:43Z</time>
      </trkpt>
      <trkpt lat="45.48321" lon="6.89475">
        <ele>2686.54</ele>
        <time>2011-06-26T09:58:46Z</time>
      </trkpt>
      <trkpt lat="45.48324" lon="6.89468">
        <ele>2689.91</ele>
        <time>2011-06-26T09:58:56Z</time>
      </trkpt>
      <trkpt lat="45.48325" lon="6.89461">
        <ele>2689.91</ele>
        <time>2011-06-26T09:59:03Z</time>
      </trkpt>
      <trkpt lat="45.48325" lon="6.89453">
        <ele>2692.79</ele>
        <time>2011-06-26T09:59:09Z</time>
      </trkpt>
      <trkpt lat="45.48324" lon="6.89441">
        <ele>2695.19</ele>
        <time>2011-06-26T09:59:19Z</time>
      </trkpt>
      <trkpt lat="45.48324" lon="6.89438">
        <ele>2691.35</ele>
        <time>2011-06-26T09:59:21Z</time>
      </trkpt>
      <trkpt lat="45.48324" lon="6.89437">
        <ele>2695.19</ele>
        <time>2011-06-26T09:59:22Z</time>
      </trkpt>
      <trkpt lat="45.48323" lon="6.89425">
        <ele>2696.15</ele>
        <time>2011-06-26T09:59:31Z</time>
      </trkpt>
      <trkpt lat="45.48322" lon="6.89418">
        <ele>2699.04</ele>
        <time>2011-06-26T09:59:37Z</time>
      </trkpt>
      <trkpt lat="45.48321" lon="6.89414">
        <ele>2697.6</ele>
        <time>2011-06-26T09:59:40Z</time>
      </trkpt>
      <trkpt lat="45.48321" lon="6.89411">
        <ele>2697.12</ele>
        <time>2011-06-26T09:59:42Z</time>
      </trkpt>
      <trkpt lat="45.48321" lon="6.89406">
        <ele>2698.56</ele>
        <time>2011-06-26T09:59:45Z</time>
      </trkpt>
      <trkpt lat="45.48322" lon="6.894">
        <ele>2702.88</ele>
        <time>2011-06-26T09:59:51Z</time>
      </trkpt>
      <trkpt lat="45.48321" lon="6.89399">
        <ele>2701.92</ele>
        <time>2011-06-26T09:59:52Z</time>
      </trkpt>
      <trkpt lat="45.48321" lon="6.89397">
        <ele>2701.44</ele>
        <time>2011-06-26T09:59:54Z</time>
      </trkpt>
      <trkpt lat="45.4832" lon="6.89394">
        <ele>2703.36</ele>
        <time>2011-06-26T09:59:58Z</time>
      </trkpt>
      <trkpt lat="45.48323" lon="6.89385">
        <ele>2705.77</ele>
        <time>2011-06-26T10:00:06Z</time>
      </trkpt>
      <trkpt lat="45.48323" lon="6.89383">
        <ele>2707.21</ele>
        <time>2011-06-26T10:00:08Z</time>
      </trkpt>
      <trkpt lat="45.48323" lon="6.8938">
        <ele>2706.73</ele>
        <time>2011-06-26T10:00:10Z</time>
      </trkpt>
      <trkpt lat="45.48324" lon="6.89378">
        <ele>2707.69</ele>
        <time>2011-06-26T10:00:12Z</time>
      </trkpt>
      <trkpt lat="45.48324" lon="6.89369">
        <ele>2709.61</ele>
        <time>2011-06-26T10:00:18Z</time>
      </trkpt>
      <trkpt lat="45.48324" lon="6.89361">
        <ele>2711.54</ele>
        <time>2011-06-26T10:00:28Z</time>
      </trkpt>
      <trkpt lat="45.48325" lon="6.89357">
        <ele>2714.42</ele>
        <time>2011-06-26T10:00:32Z</time>
      </trkpt>
      <trkpt lat="45.48319" lon="6.89358">
        <ele>2715.38</ele>
        <time>2011-06-26T10:00:46Z</time>
      </trkpt>
      <trkpt lat="45.48319" lon="6.89358">
        <ele>2714.9</ele>
        <time>2011-06-26T10:00:47Z</time>
      </trkpt>
      <trkpt lat="45.48318" lon="6.89358">
        <ele>2718.27</ele>
        <time>2011-06-26T10:00:50Z</time>
      </trkpt>
      <trkpt lat="45.48317" lon="6.89359">
        <ele>2714.42</ele>
        <time>2011-06-26T10:00:52Z</time>
      </trkpt>
      <trkpt lat="45.48315" lon="6.89362">
        <ele>2718.75</ele>
        <time>2011-06-26T10:00:55Z</time>
      </trkpt>
      <trkpt lat="45.48314" lon="6.89362">
        <ele>2715.38</ele>
        <time>2011-06-26T10:00:56Z</time>
      </trkpt>
      <trkpt lat="45.48313" lon="6.89364">
        <ele>2718.75</ele>
        <time>2011-06-26T10:00:59Z</time>
      </trkpt>
      <trkpt lat="45.48313" lon="6.89352">
        <ele>2722.59</ele>
        <time>2011-06-26T10:01:10Z</time>
      </trkpt>
      <trkpt lat="45.48315" lon="6.89343">
        <ele>2722.59</ele>
        <time>2011-06-26T10:01:16Z</time>
      </trkpt>
      <trkpt lat="45.48316" lon="6.89341">
        <ele>2724.03</ele>
        <time>2011-06-26T10:01:18Z</time>
      </trkpt>
      <trkpt lat="45.48317" lon="6.89339">
        <ele>2723.07</ele>
        <time>2011-06-26T10:01:20Z</time>
      </trkpt>
      <trkpt lat="45.48317" lon="6.89338">
        <ele>2724.03</ele>
        <time>2011-06-26T10:01:22Z</time>
      </trkpt>
      <trkpt lat="45.48313" lon="6.89335">
        <ele>2726.92</ele>
        <time>2011-06-26T10:01:32Z</time>
      </trkpt>
      <trkpt lat="45.48313" lon="6.89332">
        <ele>2726.92</ele>
        <time>2011-06-26T10:01:34Z</time>
      </trkpt>
      <trkpt lat="45.48316" lon="6.89328">
        <ele>2728.36</ele>
        <time>2011-06-26T10:01:38Z</time>
      </trkpt>
      <trkpt lat="45.48318" lon="6.89321">
        <ele>2731.72</ele>
        <time>2011-06-26T10:01:44Z</time>
      </trkpt>
    </trkseg>
  </trk>
</gpx>